Time;durP1;ratioP1;P1;durP2;ratioP2;P2;SDS_P1;SDS_P2;PMS_P1;PMS_P2;Temp;Humidity;BMP_temperature;BMP_pressure;BME280_temperature;BME280_humidity;BME280_pressure;Samples;Min_cycle;Max_cycle;Signal;HPM_P1;HPM_P2
2022/06/20 00:00:13;;;;;;;10.50;2.70;;;13.20;99.90;;;;;;5035776;28;20366;-52
2022/06/20 00:02:46;;;;;;;10.98;2.33;;;13.60;99.90;;;;;;5035390;28;20113;-53
2022/06/20 00:05:19;;;;;;;10.35;2.70;;;13.00;99.90;;;;;;5035986;28;20139;-53
2022/06/20 00:07:45;;;;;;;10.18;2.50;;;12.90;99.90;;;;;;5035612;28;20045;-53
2022/06/20 00:10:13;;;;;;;10.80;3.00;;;12.90;99.90;;;;;;5035517;28;20223;-52
2022/06/20 00:12:39;;;;;;;9.60;2.80;;;13.20;99.90;;;;;;5035381;28;20050;-52
2022/06/20 00:15:05;;;;;;;14.45;2.90;;;12.80;99.90;;;;;;5035335;28;20046;-51
2022/06/20 00:17:31;;;;;;;13.88;3.05;;;;;;;;;;5035116;28;20132;-50
2022/06/20 00:19:57;;;;;;;8.90;2.60;;;12.70;99.90;;;;;;5034988;28;20046;-52
2022/06/20 00:22:22;;;;;;;13.00;2.70;;;12.90;99.90;;;;;;5035304;28;20042;-53
2022/06/20 00:24:48;;;;;;;11.57;2.90;;;12.70;99.90;;;;;;5035250;28;20561;-51
2022/06/20 00:27:14;;;;;;;11.75;2.58;;;12.80;99.90;;;;;;5035206;28;20455;-52
2022/06/20 00:29:41;;;;;;;7.97;2.60;;;13.30;99.90;;;;;;5035480;28;20523;-52
2022/06/20 00:32:09;;;;;;;7.45;2.42;;;13.20;99.90;;;;;;5034405;28;20475;-48
2022/06/20 00:34:35;;;;;;;13.13;2.55;;;12.90;99.90;;;;;;5034778;28;20045;-52
2022/06/20 00:37:01;;;;;;;8.70;2.60;;;12.50;99.90;;;;;;5035127;28;20121;-53
2022/06/20 00:39:27;;;;;;;10.50;2.63;;;12.60;99.90;;;;;;5027278;28;20132;-50
2022/06/20 00:41:53;;;;;;;10.77;2.42;;;12.90;99.90;;;;;;5035079;28;20132;-53
2022/06/20 00:44:34;;;;;;;7.28;2.67;;;12.70;99.90;;;;;;5017165;28;20057;-52
2022/06/20 00:47:04;;;;;;;9.18;2.70;;;12.70;99.90;;;;;;5017299;28;20053;-53
2022/06/20 00:49:37;;;;;;;7.55;2.72;;;12.90;99.90;;;;;;5034993;28;20400;-53
2022/06/20 00:52:21;;;;;;;11.73;2.58;;;12.90;99.90;;;;;;5035022;28;20124;-53
2022/06/20 00:54:49;;;;;;;10.88;2.90;;;13.20;99.90;;;;;;5035010;28;20446;-52
2022/06/20 00:57:25;;;;;;;9.98;2.60;;;12.90;99.90;;;;;;5034807;28;20045;-51
2022/06/20 01:00:14;;;;;;;10.27;2.63;;;12.40;99.90;;;;;;5034646;28;20041;-52
2022/06/20 01:02:43;;;;;;;12.50;2.80;;;13.00;99.90;;;;;;5034110;28;20163;-50
2022/06/20 01:05:27;;;;;;;9.20;2.70;;;12.70;99.90;;;;;;5034398;28;20047;-52
2022/06/20 01:08:01;;;;;;;11.10;2.42;;;12.90;99.90;;;;;;5033945;28;20053;-48
2022/06/20 01:10:41;;;;;;;12.43;2.97;;;12.80;99.90;;;;;;5034559;28;20062;-49
2022/06/20 01:13:14;;;;;;;10.88;2.90;;;13.10;99.90;;;;;;5034418;28;20049;-51
2022/06/20 01:15:42;;;;;;;12.02;3.00;;;14.10;99.90;;;;;;5034228;28;20041;-52
2022/06/20 01:18:22;;;;;;;11.02;2.90;;;12.30;99.90;;;;;;5034302;28;20053;-51
2022/06/20 01:20:49;;;;;;;9.68;3.03;;;12.70;99.90;;;;;;5034410;28;20128;-52
2022/06/20 01:23:43;;;;;;;12.13;2.85;;;12.90;99.90;;;;;;5033922;28;20103;-52
2022/06/20 01:26:09;;;;;;;9.40;2.60;;;13.00;99.90;;;;;;5018453;28;20492;-50
2022/06/20 01:28:40;;;;;;;11.90;3.60;;;12.10;99.90;;;;;;5033870;28;20104;-48
2022/06/20 01:31:09;;;;;;;16.67;2.90;;;12.80;99.90;;;;;;5034182;28;20137;-52
2022/06/20 01:33:36;;;;;;;12.07;3.00;;;12.80;99.90;;;;;;5034214;28;20049;-50
2022/06/20 01:38:48;;;;;;;9.45;2.92;;;12.60;99.90;;;;;;5033945;28;20444;-52
2022/06/20 01:44:04;;;;;;;6.95;2.60;;;12.50;99.90;;;;;;5032767;28;20049;-52
2022/06/20 01:46:33;;;;;;;8.70;3.17;;;12.70;99.90;;;;;;5034020;28;20441;-53
2022/06/20 01:49:10;;;;;;;7.07;2.80;;;12.40;99.90;;;;;;5033963;28;20053;-54
2022/06/20 01:51:42;;;;;;;9.05;3.05;;;12.80;99.90;;;;;;5034067;28;20425;-51
2022/06/20 01:54:09;;;;;;;10.60;3.17;;;12.80;99.90;;;;;;5033497;28;20049;-53
2022/06/20 01:56:35;;;;;;;11.70;3.22;;;12.50;99.90;;;;;;5033562;28;20049;-53
2022/06/20 01:59:13;;;;;;;7.28;3.05;;;12.80;99.90;;;;;;5015824;28;20050;-53
2022/06/20 02:01:39;;;;;;;11.27;3.25;;;;;;;;;;5033553;28;20107;-51
2022/06/20 02:04:13;;;;;;;13.10;3.40;;;14.10;99.90;;;;;;5033221;28;20081;-52
2022/06/20 02:06:39;;;;;;;8.50;2.90;;;12.70;99.90;;;;;;5033696;28;20071;-51
2022/06/20 02:09:06;;;;;;;12.30;3.70;;;12.90;99.90;;;;;;5033335;28;20049;-51
2022/06/20 02:11:38;;;;;;;10.68;3.30;;;12.80;99.90;;;;;;5033244;28;20053;-51
2022/06/20 02:14:16;;;;;;;14.45;3.28;;;12.90;99.90;;;;;;5033264;28;20053;-54
2022/06/20 02:16:47;;;;;;;10.60;3.13;;;13.20;99.90;;;;;;5033618;28;20132;-53
2022/06/20 02:19:18;;;;;;;13.52;3.58;;;12.50;99.90;;;;;;5033510;28;20041;-51
2022/06/20 02:21:45;;;;;;;12.40;3.65;;;13.00;99.90;;;;;;5033597;28;20046;-52
2022/06/20 02:24:14;;;;;;;12.30;3.53;;;12.50;99.90;;;;;;5015589;28;20060;-52
2022/06/20 02:26:42;;;;;;;11.85;3.40;;;12.90;99.90;;;;;;5033137;28;20501;-51
2022/06/20 02:29:08;;;;;;;14.50;3.97;;;13.50;99.90;;;;;;5015643;28;20055;-53
2022/06/20 02:31:34;;;;;;;10.77;3.20;;;13.20;99.90;;;;;;5033367;28;20500;-53
2022/06/20 02:34:00;;;;;;;13.48;3.45;;;12.90;99.90;;;;;;5033328;28;20053;-51
2022/06/20 02:36:26;;;;;;;10.85;3.17;;;13.00;99.90;;;;;;5033191;28;20056;-52
2022/06/20 02:38:52;;;;;;;14.10;3.30;;;12.90;99.90;;;;;;5033155;28;20120;-53
2022/06/20 02:41:23;;;;;;;10.35;3.45;;;13.10;99.90;;;;;;5032979;28;20045;-51
2022/06/20 02:43:55;;;;;;;15.20;3.72;;;12.90;99.90;;;;;;5032910;28;20045;-53
2022/06/20 02:46:25;;;;;;;10.27;3.35;;;13.30;99.90;;;;;;5033367;28;20453;-52
2022/06/20 02:48:53;;;;;;;9.43;3.72;;;13.20;99.90;;;;;;5033158;28;20049;-52
2022/06/20 02:51:26;;;;;;;11.77;3.28;;;12.80;99.90;;;;;;5033397;28;20390;-53
2022/06/20 02:54:02;;;;;;;12.68;3.72;;;13.20;99.90;;;;;;5033090;28;20508;-53
2022/06/20 02:56:41;;;;;;;11.82;3.65;;;13.10;99.90;;;;;;5036980;28;20049;-52
2022/06/20 02:59:22;;;;;;;9.82;3.30;;;12.90;99.90;;;;;;5036988;28;20060;-52
2022/06/20 03:02:06;;;;;;;16.85;4.13;;;13.10;99.90;;;;;;5036799;28;20465;-53
2022/06/20 03:04:35;;;;;;;9.02;3.03;;;12.90;99.90;;;;;;5036690;28;20067;-53
2022/06/20 03:07:06;;;;;;;12.50;3.50;;;13.20;99.90;;;;;;5036840;28;20053;-53
2022/06/20 03:09:35;;;;;;;12.55;3.28;;;13.50;99.90;;;;;;5036639;28;20582;-50
2022/06/20 03:12:04;;;;;;;13.40;3.72;;;12.90;99.90;;;;;;5036569;28;20053;-52
2022/06/20 03:14:52;;;;;;;10.95;3.60;;;12.80;99.90;;;;;;5036911;28;20049;-48
2022/06/20 03:17:20;;;;;;;9.43;3.30;;;12.70;99.90;;;;;;5036267;28;20065;-51
2022/06/20 03:19:50;;;;;;;10.32;3.20;;;12.80;99.90;;;;;;5036508;28;20037;-51
2022/06/20 03:22:19;;;;;;;7.55;3.33;;;13.10;99.90;;;;;;5036146;28;20041;-52
2022/06/20 03:24:46;;;;;;;10.32;3.40;;;13.10;99.90;;;;;;5018691;28;20053;-49
2022/06/20 03:27:18;;;;;;;9.65;3.20;;;12.70;99.90;;;;;;5018357;28;20559;-53
2022/06/20 03:29:46;;;;;;;16.00;3.40;;;12.50;99.90;;;;;;5018299;28;20057;-53
2022/06/20 03:32:12;;;;;;;13.48;3.03;;;12.10;99.90;;;;;;5036322;28;20049;-52
2022/06/20 03:34:37;;;;;;;13.38;3.30;;;12.70;99.90;;;;;;5036125;28;20048;-52
2022/06/20 03:37:06;;;;;;;9.07;3.03;;;12.70;99.90;;;;;;5035894;28;20132;-51
2022/06/20 03:39:34;;;;;;;8.93;3.20;;;12.60;99.90;;;;;;5035914;28;20061;-49
2022/06/20 03:42:01;;;;;;;10.75;3.17;;;12.80;99.90;;;;;;5036139;28;20049;-53
2022/06/20 03:44:32;;;;;;;9.85;3.10;;;12.50;99.90;;;;;;5035894;28;20050;-53
2022/06/20 03:47:24;;;;;;;7.82;3.05;;;12.50;99.90;;;;;;5035835;28;20067;-52
2022/06/20 03:49:57;;;;;;;8.15;3.10;;;12.30;99.90;;;;;;5035837;28;20477;-52
2022/06/20 03:52:27;;;;;;;11.00;3.10;;;12.70;99.90;;;;;;5035659;28;20053;-52
2022/06/20 03:55:05;;;;;;;8.30;3.03;;;12.20;99.90;;;;;;5035946;28;20064;-53
2022/06/20 03:57:42;;;;;;;7.60;2.90;;;12.50;99.90;;;;;;5035541;28;20175;-49
2022/06/20 04:00:18;;;;;;;9.75;3.10;;;12.50;99.90;;;;;;5035602;28;20041;-54
2022/06/20 04:02:55;;;;;;;6.07;2.80;;;13.10;99.90;;;;;;5035665;28;20092;-48
2022/06/20 04:05:25;;;;;;;13.15;3.15;;;13.60;99.90;;;;;;5035288;28;20049;-53
2022/06/20 04:08:00;;;;;;;9.43;2.83;;;14.80;99.90;;;;;;5034783;28;20056;-52
2022/06/20 04:11:01;;;;;;;8.45;3.00;;;15.50;99.90;;;;;;5035427;28;20056;-54
2022/06/20 04:14:00;;;;;;;7.25;2.60;;;16.10;99.90;;;;;;5017774;28;20045;-58
2022/06/20 04:16:44;;;;;;;9.73;2.75;;;16.30;99.90;;;;;;5008898;28;20046;-59
2022/06/20 04:19:26;;;;;;;8.35;2.80;;;16.40;99.90;;;;;;5035546;28;20438;-59
2022/06/20 04:22:09;;;;;;;10.13;2.85;;;16.50;99.90;;;;;;5035098;28;20080;-57
2022/06/20 04:24:54;;;;;;;6.47;2.42;;;16.40;99.90;;;;;;5035188;28;20498;-58
2022/06/20 04:27:23;;;;;;;7.97;2.70;;;16.20;99.90;;;;;;5035142;28;20132;-59
2022/06/20 04:29:57;;;;;;;9.65;2.80;;;16.00;99.90;;;;;;5035495;28;20046;-58
2022/06/20 04:32:46;;;;;;;6.80;2.50;;;16.00;99.90;;;;;;5035275;28;20128;-59
2022/06/20 04:35:41;;;;;;;8.07;2.50;;;16.40;99.90;;;;;;5035278;28;20128;-58
2022/06/20 04:38:23;;;;;;;9.60;2.60;;;17.80;99.90;;;;;;5025958;28;20055;-58
2022/06/20 04:41:18;;;;;;;6.75;2.60;;;18.20;99.90;;;;;;5035121;28;20440;-58
2022/06/20 04:44:05;;;;;;;8.40;2.92;;;19.10;99.90;;;;;;5035002;28;20037;-52
2022/06/20 04:46:39;;;;;;;7.15;2.30;;;19.80;99.90;;;;;;5034681;28;20126;-52
2022/06/20 04:49:12;;;;;;;8.00;2.47;;;20.50;99.90;;;;;;5034667;28;20563;-52
2022/06/20 04:51:40;;;;;;;6.90;2.22;;;20.90;99.90;;;;;;5034748;28;20042;-53
2022/06/20 04:54:09;;;;;;;8.05;2.65;;;21.50;99.90;;;;;;5034540;28;20057;-52
2022/06/20 04:56:35;;;;;;;7.55;2.33;;;22.60;99.90;;;;;;5034668;28;20048;-53
2022/06/20 04:59:10;;;;;;;6.95;2.40;;;22.30;98.10;;;;;;5034338;28;20591;-52
2022/06/20 05:01:36;;;;;;;10.75;2.50;;;22.50;94.20;;;;;;5034624;28;20045;-54
2022/06/20 05:04:17;;;;;;;7.22;2.30;;;22.80;93.80;;;;;;5033813;28;20057;-53
2022/06/20 05:06:43;;;;;;;9.25;2.33;;;23.10;91.70;;;;;;5033468;28;20052;-54
2022/06/20 05:09:20;;;;;;;8.18;2.30;;;23.30;90.80;;;;;;5033626;28;20516;-52
2022/06/20 05:11:51;;;;;;;10.15;2.45;;;23.20;94.20;;;;;;5033537;28;20051;-54
2022/06/20 05:14:26;;;;;;;8.38;2.30;;;23.20;88.40;;;;;;5033537;28;20045;-53
2022/06/20 05:16:54;;;;;;;9.73;2.30;;;23.60;81.30;;;;;;5033454;28;20049;-53
2022/06/20 05:19:25;;;;;;;8.40;2.45;;;23.80;85.00;;;;;;5033157;28;20120;-54
2022/06/20 05:21:53;;;;;;;7.95;2.50;;;24.40;81.40;;;;;;5033168;28;20507;-54
2022/06/20 05:24:32;;;;;;;8.93;2.25;;;25.00;77.50;;;;;;5033017;28;20045;-55
2022/06/20 05:27:06;;;;;;;5.60;2.35;;;25.50;72.60;;;;;;5033026;28;20496;-52
2022/06/20 05:29:35;;;;;;;7.20;2.20;;;25.90;71.20;;;;;;5032961;28;20045;-54
2022/06/20 05:32:06;;;;;;;8.68;2.40;;;26.10;67.90;;;;;;5033070;28;20132;-55
2022/06/20 05:34:49;;;;;;;6.72;2.17;;;26.70;72.90;;;;;;5032969;28;20053;-55
2022/06/20 05:37:33;;;;;;;6.90;2.08;;;26.80;62.50;;;;;;5033120;28;20053;-55
2022/06/20 05:40:06;;;;;;;9.38;2.25;;;27.10;63.60;;;;;;5032965;28;20052;-55
2022/06/20 05:42:31;;;;;;;7.90;2.28;;;27.80;61.40;;;;;;5032871;28;20045;-54
2022/06/20 05:44:57;;;;;;;9.20;2.30;;;27.40;65.90;;;;;;5032711;28;20042;-55
2022/06/20 05:47:34;;;;;;;6.50;2.08;;;28.20;58.60;;;;;;5032770;28;20056;-55
2022/06/20 05:50:14;;;;;;;7.60;2.20;;;28.50;56.40;;;;;;5033087;28;20132;-55
2022/06/20 05:52:42;;;;;;;8.45;2.30;;;29.00;55.90;;;;;;5032758;28;20045;-55
2022/06/20 05:55:18;;;;;;;8.68;2.63;;;29.20;55.40;;;;;;5032505;28;20511;-55
2022/06/20 05:57:49;;;;;;;10.77;2.25;;;29.30;53.40;;;;;;5032928;28;20061;-55
2022/06/20 06:00:20;;;;;;;5.55;2.10;;;29.40;53.60;;;;;;5032619;28;20576;-55
2022/06/20 06:02:59;;;;;;;7.75;2.58;;;29.10;61.00;;;;;;4986283;28;1334447;-56
2022/06/20 06:05:31;;;;;;;12.40;2.47;;;28.60;60.30;;;;;;5033467;28;20052;-55
2022/06/20 06:08:11;;;;;;;12.52;2.38;;;28.80;52.40;;;;;;5033416;28;20502;-55
2022/06/20 06:10:47;;;;;;;9.88;2.30;;;28.70;51.60;;;;;;5033606;28;20057;-55
2022/06/20 06:13:28;;;;;;;10.50;2.50;;;28.90;51.80;;;;;;5033368;28;20172;-55
2022/06/20 06:18:51;;;;;;;9.02;2.58;;;28.90;51.50;;;;;;5033342;28;20399;-60
2022/06/20 06:21:18;;;;;;;9.25;2.70;;;29.10;50.80;;;;;;5033368;28;20557;-60
2022/06/20 06:23:44;;;;;;;7.80;2.70;;;29.20;58.30;;;;;;5033378;28;20128;-60
2022/06/20 06:26:15;;;;;;;8.35;2.40;;;29.50;49.70;;;;;;5033150;28;20558;-59
2022/06/20 06:28:41;;;;;;;6.78;2.60;;;29.20;58.20;;;;;;5033061;28;20068;-60
2022/06/20 06:31:19;;;;;;;6.38;2.65;;;29.50;48.20;;;;;;5036798;28;20104;-60
2022/06/20 06:33:54;;;;;;;6.68;2.58;;;29.50;48.40;;;;;;5037091;28;20046;-60
2022/06/20 06:36:36;;;;;;;8.63;2.50;;;28.80;49.40;;;;;;5037427;28;20053;-59
2022/06/20 06:39:05;;;;;;;10.05;2.80;;;27.60;51.30;;;;;;5037014;28;20050;-58
2022/06/20 06:41:37;;;;;;;8.15;2.70;;;26.90;52.80;;;;;;5037275;28;20052;-60
2022/06/20 06:44:15;;;;;;;7.93;2.92;;;26.60;53.40;;;;;;5015076;28;20509;-58
2022/06/20 06:46:45;;;;;;;30.05;3.40;;;25.70;53.80;;;;;;5015168;28;20050;-60
2022/06/20 06:49:36;;;;;;;12.82;3.55;;;25.40;55.50;;;;;;5015623;28;20079;-58
2022/06/20 06:52:21;;;;;;;9.90;2.75;;;25.40;55.00;;;;;;5015568;28;20046;-59
2022/06/20 06:54:55;;;;;;;10.25;2.60;;;25.00;55.20;;;;;;5015690;28;20093;-58
2022/06/20 06:57:41;;;;;;;6.70;2.65;;;25.10;56.30;;;;;;4986698;28;20065;-58
2022/06/20 07:00:07;;;;;;;6.65;2.75;;;25.60;54.80;;;;;;5015156;28;20053;-58
2022/06/20 07:02:39;;;;;;;9.82;2.85;;;26.00;67.20;;;;;;5016181;28;20050;-58
2022/06/20 07:05:19;;;;;;;8.13;2.95;;;25.20;56.00;;;;;;5015294;28;20420;-58
2022/06/20 07:07:57;;;;;;;9.50;3.03;;;23.40;71.70;;;;;;5016274;28;20085;-59
2022/06/20 07:10:55;;;;;;;8.20;2.80;;;22.10;70.30;;;;;;4997925;28;20049;-58
2022/06/20 07:13:37;;;;;;;9.52;3.10;;;21.90;73.90;;;;;;5015995;28;20514;-59
2022/06/20 07:16:11;;;;;;;10.38;3.03;;;21.80;64.10;;;;;;5015340;28;20574;-58
2022/06/20 07:18:48;;;;;;;10.15;3.03;;;21.80;76.00;;;;;;5015617;28;20386;-59
2022/06/20 07:21:17;;;;;;;14.02;3.35;;;22.20;75.00;;;;;;5015188;28;20046;-58
2022/06/20 07:23:49;;;;;;;8.50;2.95;;;22.50;75.10;;;;;;5015633;28;20041;-59
2022/06/20 07:26:18;;;;;;;8.35;2.92;;;22.50;74.70;;;;;;5015073;28;20113;-58
2022/06/20 07:28:53;;;;;;;10.55;3.03;;;23.00;74.20;;;;;;5015121;28;20054;-58
2022/06/20 07:31:31;;;;;;;;;;;23.00;63.60;;;;;;5015352;28;20053;-58
2022/06/20 07:34:05;;;;;;;8.57;3.30;;;23.10;62.30;;;;;;5015305;28;19943;-58
2022/06/20 07:36:43;;;;;;;9.70;3.35;;;22.80;63.40;;;;;;5015223;28;20050;-58
2022/06/20 07:39:26;;;;;;;8.45;3.05;;;22.20;64.00;;;;;;5015278;28;20046;-58
2022/06/20 07:41:58;;;;;;;8.63;2.60;;;21.60;65.10;;;;;;5015210;28;20382;-60
2022/06/20 07:44:29;;;;;;;6.20;2.50;;;21.70;65.90;;;;;;5015384;28;20042;-58
2022/06/20 07:47:13;;;;;;;7.60;2.20;;;21.90;64.20;;;;;;5014916;28;20121;-58
2022/06/20 07:50:03;;;;;;;7.07;2.50;;;21.80;73.70;;;;;;5015553;28;20163;-59
2022/06/20 07:52:39;;;;;;;5.47;2.47;;;22.00;72.30;;;;;;5014395;28;20483;-55
2022/06/20 07:55:21;;;;;;;7.63;2.70;;;22.10;62.80;;;;;;5014905;28;20053;-55
2022/06/20 07:57:52;;;;;;;7.35;2.50;;;22.10;64.10;;;;;;5014782;28;20054;-55
2022/06/20 08:00:23;;;;;;;8.45;2.80;;;22.30;63.30;;;;;;4997470;28;20050;-51
2022/06/20 08:02:52;;;;;;;7.03;2.60;;;22.20;64.70;;;;;;5015623;28;20046;-49
2022/06/20 08:05:37;;;;;;;15.85;3.20;;;22.50;63.80;;;;;;5015743;28;20125;-49
2022/06/20 08:08:25;;;;;;;8.75;2.88;;;22.20;61.70;;;;;;5015748;28;20049;-48
2022/06/20 08:11:06;;;;;;;6.95;2.78;;;21.80;63.30;;;;;;5015905;28;20192;-48
2022/06/20 08:13:51;;;;;;;9.77;2.88;;;21.30;64.30;;;;;;5015783;28;20046;-51
2022/06/20 08:16:27;;;;;;;7.85;2.45;;;20.80;78.90;;;;;;5015792;28;20493;-53
2022/06/20 08:18:53;;;;;;;9.82;2.63;;;21.40;78.50;;;;;;4997770;28;20057;-52
2022/06/20 08:21:28;;;;;;;10.80;2.80;;;20.90;78.50;;;;;;4997816;28;20050;-51
2022/06/20 08:24:17;;;;;;;7.05;2.97;;;21.10;67.60;;;;;;5015000;28;20071;-49
2022/06/20 08:27:08;;;;;;;9.75;2.95;;;21.50;67.60;;;;;;5015556;28;20050;-53
2022/06/20 08:29:40;;;;;;;8.98;2.83;;;21.70;68.40;;;;;;5015117;28;20049;-49
2022/06/20 08:32:35;;;;;;;5.03;2.38;;;21.80;66.60;;;;;;5014873;28;20516;-52
2022/06/20 08:35:14;;;;;;;7.75;2.42;;;22.20;74.70;;;;;;5008556;28;20054;-53
2022/06/20 08:37:54;;;;;;;7.15;2.45;;;21.60;66.30;;;;;;5014905;28;20133;-51
2022/06/20 08:40:30;;;;;;;8.40;2.58;;;21.60;64.50;;;;;;5015438;28;20045;-50
2022/06/20 08:43:17;;;;;;;8.00;2.50;;;21.80;65.30;;;;;;5014878;28;20046;-51
2022/06/20 08:46:12;;;;;;;8.00;2.40;;;21.80;63.80;;;;;;5015293;28;20053;-52
2022/06/20 08:48:51;;;;;;;8.70;2.83;;;21.50;63.50;;;;;;5014808;28;20124;-50
2022/06/20 08:52:06;;;;;;;10.80;3.00;;;20.70;75.90;;;;;;5012580;28;20074;-49
2022/06/20 08:55:07;;;;;;;8.82;3.15;;;20.70;66.60;;;;;;5001941;28;20056;-50
2022/06/20 08:58:03;;;;;;;7.93;2.70;;;20.20;69.70;;;;;;5013409;28;20493;-51
2022/06/20 09:00:41;;;;;;;7.85;2.88;;;20.20;71.80;;;;;;5014808;28;20192;-51
2022/06/20 09:03:27;;;;;;;6.97;2.67;;;20.50;70.50;;;;;;5014204;28;20062;-49
2022/06/20 09:06:05;;;;;;;9.52;2.83;;;20.80;69.80;;;;;;5014343;28;20042;-52
2022/06/20 09:08:59;;;;;;;9.80;2.70;;;21.20;68.90;;;;;;5014518;28;20433;-52
2022/06/20 09:11:46;;;;;;;9.05;2.80;;;21.60;77.00;;;;;;5014255;28;20045;-52
2022/06/20 09:14:27;;;;;;;7.45;2.80;;;21.50;66.80;;;;;;5014548;28;20053;-53
2022/06/20 09:17:06;;;;;;;7.80;2.80;;;21.50;67.40;;;;;;4996886;28;20145;-53
2022/06/20 09:19:57;;;;;;;9.02;3.03;;;21.10;75.40;;;;;;4996706;28;20049;-53
2022/06/20 09:22:28;;;;;;;7.60;2.60;;;21.00;66.80;;;;;;5014498;28;20046;-52
2022/06/20 09:25:03;;;;;;;9.93;2.60;;;20.80;68.30;;;;;;5014283;28;20049;-54
2022/06/20 09:27:57;;;;;;;7.40;2.30;;;20.80;68.60;;;;;;5014220;28;20041;-52
2022/06/20 09:30:40;;;;;;;7.10;2.53;;;21.00;77.30;;;;;;5014298;28;20167;-53
2022/06/20 09:33:38;;;;;;;6.13;2.55;;;20.90;66.50;;;;;;5014227;28;20054;-52
2022/06/20 09:36:18;;;;;;;7.05;2.25;;;21.20;76.00;;;;;;5014399;28;20049;-49
2022/06/20 09:39:09;;;;;;;7.78;2.40;;;21.40;66.90;;;;;;5014277;28;20061;-50
2022/06/20 09:41:39;;;;;;;14.32;2.92;;;21.50;66.20;;;;;;5014274;28;20096;-51
2022/06/20 09:44:20;;;;;;;7.15;2.13;;;21.10;77.90;;;;;;5012791;28;20045;-49
2022/06/20 09:46:55;;;;;;;6.90;2.20;;;21.00;66.70;;;;;;5007358;28;20545;-53
2022/06/20 09:49:39;;;;;;;7.50;1.98;;;20.80;66.20;;;;;;5009121;28;20050;-49
2022/06/20 09:52:14;;;;;;;6.30;2.13;;;20.90;65.70;;;;;;5009947;28;20133;-48
2022/06/20 09:54:57;;;;;;;10.88;1.98;;;21.10;64.70;;;;;;5010379;28;20124;-50
2022/06/20 09:57:53;;;;;;;5.93;1.88;;;21.10;65.70;;;;;;5010074;28;20057;-50
2022/06/20 10:00:20;;;;;;;3.70;1.70;;;20.00;74.20;;;;;;5009887;28;20129;-53
2022/06/20 10:03:15;;;;;;;5.50;1.80;;;20.10;71.80;;;;;;5009486;28;20121;-50
2022/06/20 10:05:47;;;;;;;5.15;1.83;;;21.10;77.30;;;;;;5009684;28;20402;-48
2022/06/20 10:08:45;;;;;;;4.38;1.63;;;21.00;65.30;;;;;;5009814;28;20139;-49
2022/06/20 10:11:23;;;;;;;4.97;1.67;;;21.00;72.70;;;;;;4992181;28;20073;-50
2022/06/20 10:14:20;;;;;;;3.60;1.60;;;21.10;64.70;;;;;;5010075;28;20049;-50
2022/06/20 10:17:12;;;;;;;5.85;1.75;;;21.10;62.60;;;;;;5009027;28;20046;-49
2022/06/20 10:19:49;;;;;;;4.40;1.70;;;21.00;61.70;;;;;;5009926;28;20174;-53
2022/06/20 10:22:29;;;;;;;5.10;1.80;;;20.80;73.10;;;;;;5009978;28;20070;-49
2022/06/20 10:25:09;;;;;;;5.97;1.90;;;20.80;62.90;;;;;;5010169;28;20061;-49
2022/06/20 10:27:40;;;;;;;5.43;1.80;;;20.80;64.50;;;;;;5013371;28;20046;-48
2022/06/20 10:30:14;;;;;;;4.65;1.90;;;20.80;78.00;;;;;;5012905;28;20050;-51
2022/06/20 10:32:45;;;;;;;4.30;1.90;;;20.80;66.50;;;;;;5011320;28;20096;-49
2022/06/20 10:35:18;;;;;;;3.95;2.20;;;20.30;78.80;;;;;;5011824;28;20052;-48
2022/06/20 10:38:04;;;;;;;6.47;2.10;;;20.60;75.70;;;;;;5013084;28;20104;-48
2022/06/20 10:40:33;;;;;;;6.43;1.95;;;20.20;77.30;;;;;;5013230;28;20074;-53
2022/06/20 10:43:11;;;;;;;5.63;1.92;;;20.60;67.80;;;;;;5013422;28;20046;-52
2022/06/20 10:45:43;;;;;;;7.00;2.38;;;20.90;81.70;;;;;;5013279;28;20046;-51
2022/06/20 10:48:20;;;;;;;6.60;2.20;;;20.80;69.80;;;;;;5013093;28;20489;-53
2022/06/20 10:51:08;;;;;;;4.60;1.77;;;21.20;69.50;;;;;;5013134;28;20041;-51
2022/06/20 10:53:40;;;;;;;4.90;1.90;;;21.50;67.00;;;;;;5013141;28;20520;-50
2022/06/20 10:56:32;;;;;;;4.65;2.00;;;21.40;66.00;;;;;;5013275;28;20057;-52
2022/06/20 10:59:00;;;;;;;4.25;1.90;;;21.50;64.00;;;;;;5013082;28;20093;-51
2022/06/20 11:01:52;;;;;;;8.65;2.05;;;22.20;73.40;;;;;;4995563;28;20042;-53
2022/06/20 11:04:24;;;;;;;7.22;2.10;;;21.20;64.00;;;;;;5000297;28;20414;-50
2022/06/20 11:07:02;;;;;;;7.18;1.90;;;21.30;76.40;;;;;;4990039;28;20910;-49
2022/06/20 11:09:52;;;;;;;4.32;1.70;;;21.00;65.90;;;;;;4988701;28;20038;-50
2022/06/20 11:12:23;;;;;;;7.95;2.13;;;21.10;65.30;;;;;;5009823;28;20526;-51
2022/06/20 11:15:10;;;;;;;7.03;2.30;;;21.30;77.30;;;;;;5009907;28;20061;-53
2022/06/20 11:17:57;;;;;;;8.32;2.20;;;21.20;65.50;;;;;;5013327;28;20045;-53
2022/06/20 11:20:32;;;;;;;10.05;2.38;;;21.00;66.40;;;;;;5012530;28;20128;-49
2022/06/20 11:23:29;;;;;;;4.50;1.83;;;20.90;67.40;;;;;;5012938;28;20050;-54
2022/06/20 11:26:11;;;;;;;;;;;21.10;63.90;;;;;;4985557;28;20050;-50
2022/06/20 11:28:40;;;;;;;5.30;1.90;;;21.30;64.10;;;;;;5013119;28;19918;-50
2022/06/20 11:31:36;;;;;;;5.75;1.80;;;21.50;64.90;;;;;;5012509;28;20097;-53
2022/06/20 11:34:23;;;;;;;4.80;1.77;;;21.50;63.30;;;;;;5012853;28;20448;-53
2022/06/20 11:37:21;;;;;;;6.70;2.00;;;21.30;62.80;;;;;;5002860;28;20107;-50
2022/06/20 11:40:08;;;;;;;7.55;1.88;;;21.40;64.70;;;;;;5013731;28;20500;-51
2022/06/20 11:42:49;;;;;;;5.60;1.67;;;21.60;64.00;;;;;;5032101;28;20048;-49
2022/06/20 11:45:24;;;;;;;5.22;1.90;;;21.90;72.50;;;;;;5031960;28;20107;-49
2022/06/20 11:48:11;;;;;;;8.18;2.10;;;22.00;64.40;;;;;;5031874;28;20053;-51
2022/06/20 11:51:12;;;;;;;5.82;2.10;;;22.20;64.70;;;;;;5025055;28;20050;-51
2022/06/20 11:53:50;;;;;;;6.10;2.05;;;22.50;63.30;;;;;;4988792;28;20409;-53
2022/06/20 11:56:23;;;;;;;5.43;1.88;;;22.70;63.70;;;;;;5012068;28;20494;-53
2022/06/20 11:59:08;;;;;;;7.35;2.28;;;22.80;62.10;;;;;;5013536;28;20061;-53
2022/06/20 12:02:02;;;;;;;7.75;1.83;;;22.80;60.70;;;;;;5022964;28;20060;-53
2022/06/20 12:04:38;;;;;;;6.60;2.30;;;22.70;59.70;;;;;;5014248;28;20045;-50
2022/06/20 12:07:13;;;;;;;5.82;1.90;;;22.40;60.80;;;;;;5035113;28;20489;-52
2022/06/20 12:09:42;;;;;;;8.73;2.10;;;22.20;61.50;;;;;;5035573;28;20077;-51
2022/06/20 12:12:24;;;;;;;6.50;2.00;;;22.20;63.60;;;;;;5017561;28;20084;-51
2022/06/20 12:15:22;;;;;;;8.27;2.00;;;22.50;62.50;;;;;;5017556;28;20441;-53
2022/06/20 12:18:12;;;;;;;5.53;2.10;;;22.60;61.00;;;;;;5012066;28;20089;-50
2022/06/20 12:23:42;;;;;;;5.20;2.00;;;22.60;61.50;;;;;;5035385;28;20412;-53
2022/06/20 12:26:39;;;;;;;8.13;2.15;;;22.20;61.50;;;;;;5035041;28;20049;-51
2022/06/20 12:29:28;;;;;;;3.60;2.10;;;21.80;62.60;;;;;;5026389;28;20128;-51
2022/06/20 12:32:00;;;;;;;4.65;1.92;;;21.60;62.50;;;;;;5030786;28;20042;-50
2022/06/20 12:34:56;;;;;;;5.25;1.95;;;21.30;61.90;;;;;;5015378;28;20061;-52
2022/06/20 12:37:48;;;;;;;5.25;2.05;;;21.10;73.20;;;;;;5013958;28;20049;-51
2022/06/20 12:40:14;;;;;;;8.50;2.30;;;21.20;62.50;;;;;;5025209;28;20069;-53
2022/06/20 12:42:55;;;;;;;5.35;2.08;;;21.70;63.40;;;;;;5017744;28;20481;-52
2022/06/20 12:45:46;;;;;;;7.00;2.20;;;22.10;63.30;;;;;;5013741;28;20112;-51
2022/06/20 12:48:38;;;;;;;9.80;2.67;;;21.80;63.10;;;;;;5009194;28;20056;-54
2022/06/20 12:51:20;;;;;;;7.05;2.42;;;21.80;66.10;;;;;;5014840;28;20085;-52
2022/06/20 12:54:08;;;;;;;9.60;2.20;;;22.00;63.80;;;;;;5015217;28;20393;-53
2022/06/20 12:57:16;;;;;;;7.63;2.10;;;22.20;61.00;;;;;;5014865;28;20050;-60
2022/06/20 13:00:03;;;;;;;3.72;1.83;;;22.20;60.30;;;;;;5015020;28;20128;-60
2022/06/20 13:03:03;;;;;;;10.60;2.13;;;22.30;61.10;;;;;;5014825;28;20469;-60
2022/06/20 13:05:45;;;;;;;7.47;2.20;;;22.00;58.40;;;;;;4995268;28;20078;-60
2022/06/20 13:08:28;;;;;;;8.73;2.20;;;22.00;61.20;;;;;;4994850;28;20042;-61
2022/06/20 13:11:12;;;;;;;6.13;2.30;;;22.10;63.00;;;;;;4977499;28;20077;-61
2022/06/20 13:13:38;;;;;;;5.70;1.90;;;22.10;60.60;;;;;;4995026;28;20054;-60
2022/06/20 13:16:13;;;;;;;9.48;2.15;;;22.00;61.90;;;;;;4994739;28;20058;-60
2022/06/20 13:18:52;;;;;;;6.28;2.17;;;21.80;61.50;;;;;;4994420;28;20490;-61
2022/06/20 13:21:25;;;;;;;5.43;2.15;;;21.50;62.30;;;;;;4994129;28;20053;-52
2022/06/20 13:24:03;;;;;;;8.15;2.13;;;21.20;74.50;;;;;;4994846;28;20057;-52
2022/06/20 13:26:47;;;;;;;5.97;2.20;;;21.20;65.00;;;;;;4994658;28;20129;-53
2022/06/20 13:29:54;;;;;;;6.88;2.33;;;21.30;76.00;;;;;;4994775;28;20125;-52
2022/06/20 13:32:36;;;;;;;3.83;2.00;;;21.40;66.70;;;;;;4992198;28;20419;-52
2022/06/20 13:35:26;;;;;;;8.82;2.10;;;21.40;67.10;;;;;;4994785;28;20062;-60
2022/06/20 13:38:14;;;;;;;6.38;2.28;;;21.40;66.20;;;;;;4994680;28;20073;-61
2022/06/20 13:40:49;;;;;;;4.20;1.90;;;21.40;66.10;;;;;;4994575;28;20054;-60
2022/06/20 13:44:05;;;;;;;5.07;2.10;;;22.20;76.30;;;;;;4994243;28;20522;-60
2022/06/20 13:46:46;;;;;;;6.77;2.30;;;20.90;74.90;;;;;;4899595;29;20052;-61
2022/06/20 13:49:18;;;;;;;4.80;2.00;;;20.60;78.40;;;;;;4915396;29;20052;-61